Time;durP1;ratioP1;P1;durP2;ratioP2;P2;SDS_P1;SDS_P2;PMS_P1;PMS_P2;Temp;Humidity;BMP_temperature;BMP_pressure;BME280_temperature;BME280_humidity;BME280_pressure;Samples;Min_cycle;Max_cycle;Signal;HPM_P1;HPM_P2
2022/05/31 00:01:10;;;;;;;5.05;1.10;;;;;;;9.21;100.00;101483.56;10226168;28;20103;-61
2022/05/31 00:06:08;;;;;;;2.72;1.15;;;;;;;9.14;100.00;101483.09;10227658;28;20128;-64
2022/05/31 00:11:04;;;;;;;3.63;1.00;;;;;;;9.09;100.00;101483.97;10221849;28;20069;-61
2022/05/31 00:16:01;;;;;;;3.10;0.90;;;;;;;9.00;100.00;101481.03;10219335;28;20069;-62
2022/05/31 00:20:57;;;;;;;4.75;1.80;;;;;;;8.96;100.00;101474.56;10221285;28;20453;-64
2022/05/31 00:25:54;;;;;;;5.25;2.75;;;;;;;8.93;100.00;101475.13;10228461;28;20041;-65
2022/05/31 00:30:51;;;;;;;3.95;1.67;;;;;;;8.89;100.00;101479.53;10217626;28;20103;-64
2022/05/31 00:35:53;;;;;;;2.80;1.42;;;;;;;8.81;100.00;101477.44;10219201;28;20050;-65
2022/05/31 00:40:50;;;;;;;3.80;1.50;;;;;;;8.73;100.00;101475.34;10218898;28;20096;-65
2022/05/31 00:45:51;;;;;;;6.15;1.50;;;;;;;8.64;100.00;101473.22;10222567;28;20317;-65
2022/05/31 00:50:53;;;;;;;4.57;1.70;;;;;;;8.57;100.00;101480.09;10229475;28;20688;-65
2022/05/31 00:55:56;;;;;;;4.20;1.87;;;;;;;8.50;100.00;101477.72;10225115;28;20049;-64
2022/05/31 01:00:53;;;;;;;3.95;1.58;;;;;;;8.45;100.00;101485.94;10229206;28;20140;-64
2022/05/31 01:05:50;;;;;;;5.35;1.80;;;;;;;8.36;100.00;101488.41;10218540;28;20057;-65
2022/05/31 01:10:46;;;;;;;4.50;1.73;;;;;;;8.33;100.00;101485.44;10224807;28;20513;-65
2022/05/31 01:15:44;;;;;;;3.67;1.50;;;;;;;8.26;100.00;101482.22;10219229;28;20076;-64
2022/05/31 01:20:41;;;;;;;4.65;1.45;;;;;;;8.21;100.00;101481.16;10226840;28;20547;-65
2022/05/31 01:25:41;;;;;;;3.97;2.10;;;;;;;8.16;100.00;101481.19;10217810;28;20046;-65
2022/05/31 01:30:54;;;;;;;4.65;1.75;;;;;;;8.09;100.00;101483.41;10229696;28;20132;-64
2022/05/31 01:35:50;;;;;;;;;;;;;;;8.04;100.00;101488.91;10219294;28;20077;-64
2022/05/31 01:41:09;;;;;;;4.63;2.05;;;;;;;7.95;100.00;101493.31;10217573;28;19924;-64
2022/05/31 01:46:09;;;;;;;6.63;1.85;;;;;;;7.90;100.00;101496.88;10215628;28;20497;-64
2022/05/31 01:51:06;;;;;;;4.70;2.00;;;;;;;7.88;100.00;101498.25;10220287;28;20049;-64
2022/05/31 01:56:03;;;;;;;4.05;2.03;;;;;;;7.85;100.00;101493.38;10212000;28;20479;-63
2022/05/31 02:01:02;;;;;;;5.95;2.35;;;;;;;7.83;100.00;101492.84;10219272;28;20559;-64
2022/05/31 02:05:59;;;;;;;4.00;2.05;;;;;;;7.76;100.00;101485.78;10220953;28;20046;-65
2022/05/31 02:10:56;;;;;;;4.57;2.30;;;;;;;7.74;100.00;101481.72;10225734;28;20119;-63
2022/05/31 02:15:54;;;;;;;3.80;2.20;;;;;;;7.69;100.00;101474.38;10226834;28;20041;-62
2022/05/31 02:20:51;;;;;;;5.05;1.88;;;;;;;7.66;100.00;101474.94;10220347;28;20095;-62
2022/05/31 02:25:47;;;;;;;5.38;1.92;;;;;;;7.64;100.00;101477.13;10224194;28;20053;-62
2022/05/31 02:30:44;;;;;;;5.78;2.25;;;;;;;7.62;100.00;101482.03;10229093;28;20057;-63
2022/05/31 02:35:40;;;;;;;5.22;2.50;;;;;;;7.57;100.00;101482.88;10227318;28;20168;-64
2022/05/31 02:40:37;;;;;;;4.38;2.33;;;;;;;7.52;100.00;101479.34;10220682;28;20053;-62
2022/05/31 02:45:33;;;;;;;5.68;2.72;;;;;;;7.50;100.00;101492.44;10220775;28;20099;-62
2022/05/31 02:50:30;;;;;;;4.47;2.40;;;;;;;7.46;100.00;101475.84;10229298;28;20065;-64
2022/05/31 02:55:26;;;;;;;6.22;2.45;;;;;;;7.43;100.00;101483.75;10223832;28;20597;-61
2022/05/31 03:00:23;;;;;;;5.05;2.75;;;;;;;7.33;100.00;101477.25;10227828;28;20125;-61
2022/05/31 03:05:19;;;;;;;5.10;2.30;;;;;;;7.30;100.00;101480.53;10217869;28;20053;-61
2022/05/31 03:10:16;;;;;;;5.75;2.55;;;;;;;7.27;100.00;101478.38;10229259;28;20076;-60
2022/05/31 03:15:15;;;;;;;5.80;2.75;;;;;;;7.21;100.00;101474.03;10214685;28;20084;-64
2022/05/31 03:20:12;;;;;;;5.35;3.08;;;;;;;7.18;100.00;101480.03;10211415;28;20132;-64
2022/05/31 03:25:14;;;;;;;5.75;2.83;;;;;;;7.14;100.00;101473.50;10206569;28;20458;-65
2022/05/31 03:30:12;;;;;;;4.72;2.75;;;;;;;7.11;100.00;101479.50;10205704;28;20053;-64
2022/05/31 03:35:09;;;;;;;5.63;3.03;;;;;;;7.12;100.00;101481.91;10201746;28;20096;-66
2022/05/31 03:40:06;;;;;;;5.85;3.22;;;;;;;7.10;100.00;101483.28;10218213;28;20057;-66
2022/05/31 03:45:08;;;;;;;6.28;3.58;;;;;;;7.10;100.00;101488.72;10207730;28;20133;-65
2022/05/31 03:50:05;;;;;;;7.13;3.28;;;;;;;7.10;100.00;101486.00;10212397;28;20137;-67
2022/05/31 03:55:03;;;;;;;5.65;3.45;;;;;;;7.08;100.00;101490.94;10204673;28;20053;-63
2022/05/31 04:00:00;;;;;;;6.03;3.45;;;;;;;7.12;100.00;101497.44;10221205;28;20107;-66
2022/05/31 04:04:56;;;;;;;7.30;3.35;;;;;;;7.18;100.00;101490.91;10207608;28;20085;-65
2022/05/31 04:09:53;;;;;;;6.10;3.90;;;;;;;7.23;100.00;101493.59;10211452;28;20115;-65
2022/05/31 04:14:49;;;;;;;6.47;3.78;;;;;;;7.28;100.00;101490.06;10200255;28;20481;-65
2022/05/31 04:19:45;;;;;;;6.30;3.85;;;;;;;7.31;100.00;101490.31;10216645;28;20077;-65
2022/05/31 04:24:42;;;;;;;5.53;3.65;;;;;;;7.35;100.00;101496.81;10202708;28;20476;-65
2022/05/31 04:29:38;;;;;;;6.10;3.88;;;;;;;7.42;100.00;101493.00;10213712;28;20152;-67
2022/05/31 04:34:35;;;;;;;7.35;4.60;;;;;;;7.48;100.00;101489.19;10211992;28;20487;-68
2022/05/31 04:39:32;;;;;;;6.75;4.30;;;;;;;7.53;100.00;101498.13;10205311;28;20106;-67
2022/05/31 04:44:28;;;;;;;6.95;4.35;;;;;;;7.54;100.00;101498.94;10212465;28;20103;-68
2022/05/31 04:49:25;;;;;;;7.57;4.90;;;;;;;7.68;100.00;101493.72;10220379;28;20541;-68
2022/05/31 04:54:24;;;;;;;7.50;5.03;;;;;;;7.76;100.00;101499.38;10219755;28;20065;-68
2022/05/31 04:59:20;;;;;;;12.02;6.07;;;;;;;7.87;100.00;101496.63;10218843;28;20556;-68
2022/05/31 05:04:17;;;;;;;11.68;6.10;;;;;;;8.07;100.00;101493.78;10221675;28;20701;-68
2022/05/31 05:09:13;;;;;;;10.02;5.10;;;;;;;8.12;100.00;101493.75;10210507;28;20072;-67
2022/05/31 05:14:10;;;;;;;10.63;5.88;;;;;;;8.18;100.00;101508.97;10206347;28;20132;-67
2022/05/31 05:19:07;;;;;;;8.18;5.28;;;;;;;8.27;100.00;101500.19;10217983;28;20077;-68
2022/05/31 05:24:03;;;;;;;8.68;5.00;;;;;;;8.36;100.00;101509.41;10224129;28;20865;-67
2022/05/31 05:34:15;;;;;;;9.38;4.88;;;;;;;8.52;100.00;101508.22;10208148;28;20160;-67
2022/05/31 05:39:11;;;;;;;6.28;4.30;;;;;;;8.64;100.00;101514.09;10210744;28;20524;-67
2022/05/31 05:44:09;;;;;;;7.05;3.90;;;;;;;8.79;100.00;101504.16;10213796;28;20144;-68
2022/05/31 05:49:05;;;;;;;7.00;3.67;;;;;;;8.90;100.00;101502.97;10220222;28;20104;-67
2022/05/31 05:54:02;;;;;;;5.65;2.63;;;;;;;8.96;100.00;101507.28;10225297;28;20104;-67
2022/05/31 05:58:59;;;;;;;5.63;2.85;;;;;;;9.10;100.00;101503.88;10230806;28;20042;-67
2022/05/31 06:04:20;;;;;;;5.70;2.22;;;;;;;9.22;100.00;101512.50;10217363;28;20038;-67
2022/05/31 06:09:21;;;;;;;5.40;1.70;;;;;;;9.37;100.00;101512.31;10220619;28;20072;-67
2022/05/31 06:14:27;;;;;;;4.30;1.48;;;;;;;9.50;100.00;101505.34;10230445;28;20139;-68
2022/05/31 06:19:28;;;;;;;6.28;1.60;;;;;;;9.57;100.00;101500.34;10219239;28;20075;-67
2022/05/31 06:24:28;;;;;;;3.30;1.23;;;;;;;9.72;100.00;101507.53;10221048;28;20136;-67
2022/05/31 06:29:27;;;;;;;3.33;1.35;;;;;;;9.87;100.00;101493.69;10225665;28;20421;-68
2022/05/31 06:34:24;;;;;;;5.43;2.05;;;;;;;9.92;100.00;101494.72;10222481;28;20069;-67
2022/05/31 06:39:21;;;;;;;3.55;1.23;;;;;;;10.00;100.00;101497.63;10215914;28;20065;-67
2022/05/31 06:44:17;;;;;;;3.65;1.15;;;;;;;10.10;100.00;101496.66;10213780;28;20160;-67
2022/05/31 06:49:14;;;;;;;5.22;1.05;;;;;;;10.18;100.00;101498.69;10227252;28;20053;-67
2022/05/31 06:59:25;;;;;;;3.50;1.40;;;;;;;10.58;100.00;101498.41;10221212;28;20242;-67
2022/05/31 07:04:22;;;;;;;3.67;1.05;;;;;;;10.70;100.00;101488.63;10217677;28;20147;-67
2022/05/31 07:09:18;;;;;;;3.17;0.93;;;;;;;10.90;100.00;101492.09;10212935;28;20072;-67
2022/05/31 07:14:15;;;;;;;4.20;1.15;;;;;;;11.06;100.00;101498.91;10213704;28;20054;-67
2022/05/31 07:19:11;;;;;;;7.38;1.45;;;;;;;11.12;100.00;101494.97;10219593;28;21275;-67
2022/05/31 07:24:08;;;;;;;3.47;1.20;;;;;;;11.18;100.00;101492.16;10224110;28;20049;-67
2022/05/31 07:29:05;;;;;;;4.38;1.00;;;;;;;11.30;100.00;101489.72;10223790;28;20140;-67
2022/05/31 07:34:01;;;;;;;2.88;1.00;;;;;;;11.52;100.00;101492.56;10215745;28;20826;-67
2022/05/31 07:38:58;;;;;;;3.53;0.93;;;;;;;11.69;100.00;101486.44;10216384;28;20136;-67
2022/05/31 07:43:54;;;;;;;3.72;1.20;;;;;;;11.89;100.00;101490.72;10223900;28;20689;-67
2022/05/31 07:48:50;;;;;;;2.83;0.90;;;;;;;11.83;100.00;101475.47;10222391;28;20496;-67
2022/05/31 07:53:47;;;;;;;5.93;1.20;;;;;;;11.91;100.00;101472.03;10220051;28;20142;-67
2022/05/31 07:58:46;;;;;;;2.45;0.80;;;;;;;12.05;100.00;101471.19;10220240;28;20042;-67
2022/05/31 08:03:43;;;;;;;3.92;1.00;;;;;;;12.25;100.00;101476.19;10217436;28;20128;-67
2022/05/31 08:08:40;;;;;;;2.53;1.02;;;;;;;12.29;100.00;101466.22;10217380;28;20084;-67
2022/05/31 08:13:38;;;;;;;3.40;1.02;;;;;;;12.59;100.00;101463.84;10216256;28;20053;-67
2022/05/31 08:18:35;;;;;;;7.40;1.17;;;;;;;12.72;100.00;101468.47;10226325;28;20049;-67
2022/05/31 08:23:33;;;;;;;4.25;1.20;;;;;;;12.97;100.00;101457.91;10213335;28;20069;-68
2022/05/31 08:28:30;;;;;;;6.10;0.93;;;;;;;13.16;100.00;101455.75;10222120;28;20135;-67
2022/05/31 08:33:27;;;;;;;2.97;0.95;;;;;;;13.35;100.00;101458.25;10226600;28;20100;-67
2022/05/31 08:38:24;;;;;;;2.15;1.00;;;;;;;13.44;100.00;101455.56;10210346;28;20041;-68
2022/05/31 08:43:27;;;;;;;3.17;0.93;;;;;;;13.42;100.00;101444.06;10223356;28;20524;-67
2022/05/31 08:48:49;;;;;;;4.82;1.10;;;;;;;13.45;100.00;101446.97;10217430;28;20682;-67
2022/05/31 08:56:56;;;;;;;4.20;1.00;;;;;;;13.44;100.00;101445.38;10223306;28;20077;-68
2022/05/31 08:59:18;;;;;;;5.50;1.65;;;;;;;13.33;100.00;101448.72;10216651;28;20563;-67
2022/05/31 09:04:38;;;;;;;4.15;1.73;;;;;;;13.30;100.00;101443.84;10216185;28;20119;-67
2022/05/31 09:09:54;;;;;;;4.78;1.70;;;;;;;13.32;100.00;101436.09;10217585;28;20080;-67
2022/05/31 09:14:54;;;;;;;5.20;1.50;;;;;;;13.41;100.00;101428.69;10221207;28;20076;-68
2022/05/31 09:19:58;;;;;;;5.68;2.10;;;;;;;13.56;100.00;101428.25;10222809;28;20108;-67
2022/05/31 09:24:55;;;;;;;6.80;2.13;;;;;;;14.04;100.00;101430.06;10219316;28;20045;-68
2022/05/31 09:30:07;;;;;;;5.97;1.38;;;;;;;14.25;100.00;101418.41;10219835;28;20049;-67
2022/05/31 09:35:40;;;;;;;7.38;1.58;;;;;;;14.46;100.00;101419.34;10215750;28;20053;-67
2022/05/31 09:40:45;;;;;;;3.08;1.55;;;;;;;14.80;100.00;101417.66;10206672;28;20041;-68
2022/05/31 09:45:59;;;;;;;6.05;1.50;;;;;;;14.79;93.37;101418.00;10217264;28;20096;-67
2022/05/31 09:51:09;;;;;;;3.97;1.40;;;;;;;14.70;92.20;101409.75;10224478;28;20566;-67
2022/05/31 10:01:26;;;;;;;8.43;3.08;;;;;;;14.41;92.21;101403.03;10219388;28;20046;-68
2022/05/31 10:06:27;;;;;;;6.38;1.70;;;;;;;14.32;95.67;101396.72;10213090;28;20045;-67
2022/05/31 10:11:44;;;;;;;4.07;1.42;;;;;;;14.18;95.43;101396.91;10222933;28;20061;-67
2022/05/31 10:16:41;;;;;;;4.88;1.67;;;;;;;14.18;98.16;101391.41;10212551;28;20456;-68
2022/05/31 10:21:43;;;;;;;6.07;2.17;;;;;;;14.09;98.92;101401.59;10217307;28;20084;-67
2022/05/31 10:26:40;;;;;;;3.67;1.60;;;;;;;14.29;97.57;101397.34;10214179;28;20425;-68
2022/05/31 10:31:43;;;;;;;3.55;1.70;;;;;;;14.52;98.55;101390.50;10211067;28;20555;-68
2022/05/31 10:36:55;;;;;;;4.15;1.83;;;;;;;14.63;95.42;101384.69;10225908;28;20053;-67
2022/05/31 10:41:54;;;;;;;6.35;2.05;;;;;;;15.36;95.49;101378.97;10230336;28;20084;-67
2022/05/31 10:46:58;;;;;;;6.00;1.80;;;;;;;15.66;92.48;101379.72;10230350;28;20096;-68
2022/05/31 10:52:03;;;;;;;4.57;1.85;;;;;;;16.17;90.21;101376.88;10218416;28;20133;-67
2022/05/31 10:57:20;;;;;;;3.88;1.40;;;;;;;17.33;82.97;101382.31;10220705;28;20501;-68
2022/05/31 11:02:32;;;;;;;3.97;1.27;;;;;;;18.20;66.75;101362.38;10220243;28;20057;-68
2022/05/31 11:07:37;;;;;;;5.57;1.23;;;;;;;19.23;59.27;101357.00;10230574;28;20052;-68
2022/05/31 11:13:16;;;;;;;3.30;1.30;;;;;;;19.13;52.11;101364.72;10224150;28;20076;-68
2022/05/31 11:18:45;;;;;;;4.00;1.25;;;;;;;19.77;55.91;101367.31;10219035;28;20053;-68
2022/05/31 11:24:13;;;;;;;3.13;1.10;;;;;;;20.60;57.74;101351.03;10219392;28;20132;-68
2022/05/31 11:29:38;;;;;;;4.93;1.08;;;;;;;21.50;60.28;101351.63;10216912;28;20509;-68
2022/05/31 11:34:37;;;;;;;4.53;0.93;;;;;;;21.69;56.39;101345.09;10229142;28;20077;-67
2022/05/31 11:39:58;;;;;;;3.83;1.40;;;;;;;20.77;67.62;101349.75;10223571;28;20073;-68
2022/05/31 11:45:25;;;;;;;1.70;0.63;;;;;;;20.30;48.76;101342.56;10224258;28;20038;-68
2022/05/31 11:50:48;;;;;;;1.92;0.60;;;;;;;19.24;55.45;101341.97;10224128;28;20082;-67
2022/05/31 11:56:14;;;;;;;3.33;0.60;;;;;;;18.14;50.44;101333.31;10222425;28;20115;-69
2022/05/31 12:01:17;;;;;;;3.63;0.95;;;;;;;17.75;52.46;101330.25;10212361;28;20453;-68
2022/05/31 12:06:48;;;;;;;2.55;0.68;;;;;;;17.42;56.92;101322.19;10221800;28;20548;-68
2022/05/31 12:11:52;;;;;;;2.72;0.80;;;;;;;17.26;55.09;101322.09;10217157;28;20049;-68
2022/05/31 12:16:51;;;;;;;1.95;0.77;;;;;;;17.18;53.25;101312.81;10215311;28;20084;-68
2022/05/31 12:22:09;;;;;;;4.75;1.25;;;;;;;17.15;51.15;101307.16;10222212;28;20063;-67
2022/05/31 12:27:20;;;;;;;3.17;0.70;;;;;;;16.97;49.88;101312.94;10215084;28;20440;-68
2022/05/31 12:32:20;;;;;;;1.77;0.52;;;;;;;17.01;59.45;101313.88;10211319;28;20148;-68
2022/05/31 12:37:19;;;;;;;2.78;1.00;;;;;;;17.14;60.27;101305.56;10219052;28;20050;-68
2022/05/31 12:42:36;;;;;;;1.55;0.47;;;;;;;17.08;52.07;101312.47;10209951;28;20046;-68
2022/05/31 12:47:33;;;;;;;3.03;0.80;;;;;;;16.94;53.67;101308.13;10215481;28;20045;-68
2022/05/31 13:02:56;;;;;;;4.82;0.85;;;;;;;16.89;50.00;101294.53;10210510;28;20046;-68
2022/05/31 13:08:22;;;;;;;3.58;0.73;;;;;;;16.62;48.95;101307.88;10222711;28;20046;-68
2022/05/31 13:24:17;;;;;;;2.33;0.60;;;;;;;16.07;54.94;101300.09;10214520;28;20045;-69
2022/05/31 13:29:14;;;;;;;2.50;0.50;;;;;;;16.04;67.40;101293.31;10215601;28;20107;-68
2022/05/31 13:34:10;;;;;;;1.63;0.60;;;;;;;16.04;57.04;101298.81;10217439;28;20049;-68
2022/05/31 13:39:10;;;;;;;4.82;0.98;;;;;;;16.30;57.05;101289.44;10226027;28;20069;-68
2022/05/31 13:44:07;;;;;;;3.05;0.73;;;;;;;16.86;63.12;101286.94;10219731;28;20065;-69
2022/05/31 13:49:11;;;;;;;5.80;0.60;;;;;;;16.99;55.42;101279.47;10212072;28;20049;-68
2022/05/31 13:54:12;;;;;;;2.95;0.50;;;;;;;17.20;56.18;101273.78;10220525;28;20142;-68
2022/05/31 13:59:10;;;;;;;3.90;0.70;;;;;;;17.29;57.94;101268.09;10210718;28;20049;-69
2022/05/31 14:04:20;;;;;;;1.83;0.50;;;;;;;17.32;59.62;101268.22;10214709;28;20053;-69
2022/05/31 14:09:30;;;;;;;2.80;0.93;;;;;;;17.37;59.69;101262.44;10222491;28;20468;-69
2022/05/31 14:14:47;;;;;;;3.30;0.95;;;;;;;17.59;58.49;101266.63;10226311;28;20498;-69
2022/05/31 14:19:49;;;;;;;2.95;0.93;;;;;;;17.35;57.17;101270.25;10224045;28;20118;-69
2022/05/31 14:24:48;;;;;;;3.45;0.98;;;;;;;17.36;63.47;101269.13;10225805;28;20099;-68
2022/05/31 14:30:00;;;;;;;2.67;0.90;;;;;;;17.17;58.41;101266.16;10214307;28;20571;-69
2022/05/31 14:34:57;;;;;;;2.90;0.90;;;;;;;16.90;58.19;101273.25;10218082;28;20133;-68
2022/05/31 14:40:03;;;;;;;3.67;0.93;;;;;;;16.82;59.51;101272.22;10229555;28;20552;-69
2022/05/31 14:45:02;;;;;;;5.82;0.98;;;;;;;16.69;62.33;101284.41;10226236;28;20554;-68
2022/05/31 14:50:02;;;;;;;4.97;1.70;;;;;;;16.70;61.12;101274.97;10226361;28;20064;-69
2022/05/31 14:55:07;;;;;;;2.97;0.90;;;;;;;16.67;66.18;101270.16;10226200;28;20057;-69
2022/05/31 15:00:04;;;;;;;3.08;0.70;;;;;;;16.69;73.28;101267.84;10226391;28;20123;-68
2022/05/31 15:05:01;;;;;;;2.83;0.88;;;;;;;16.84;76.82;101256.09;10209700;28;20136;-66
2022/05/31 15:10:11;;;;;;;3.65;1.23;;;;;;;16.98;80.51;101247.47;10229360;28;20508;-67
2022/05/31 15:20:30;;;;;;;3.25;1.10;;;;;;;17.39;71.57;101243.53;10218647;28;20436;-66
2022/05/31 15:25:26;;;;;;;2.58;0.88;;;;;;;17.49;71.17;101244.19;10217553;28;20136;-66
2022/05/31 15:30:23;;;;;;;3.33;1.10;;;;;;;17.54;75.63;101246.69;10214277;28;20137;-66
2022/05/31 15:35:40;;;;;;;3.35;1.13;;;;;;;17.41;67.82;101249.53;10220594;28;20041;-63
2022/05/31 15:41:00;;;;;;;3.35;1.10;;;;;;;17.16;66.23;101242.47;10215194;28;20429;-65
2022/05/31 15:45:57;;;;;;;4.28;1.30;;;;;;;16.98;66.91;101242.72;10213732;28;20096;-66
2022/05/31 15:50:54;;;;;;;4.70;1.60;;;;;;;16.80;69.79;101241.38;10208153;28;20056;-67
2022/05/31 15:55:50;;;;;;;3.17;1.13;;;;;;;16.75;69.15;101244.34;10196801;28;20080;-63
2022/05/31 16:00:47;;;;;;;3.25;1.05;;;;;;;16.70;81.57;101252.88;10194696;28;20556;-63
2022/05/31 16:05:43;;;;;;;5.03;1.30;;;;;;;16.62;82.12;101241.63;10212386;28;20042;-68
2022/05/31 16:10:40;;;;;;;2.28;0.68;;;;;;;16.61;82.39;101245.50;10207154;28;20061;-68
2022/05/31 16:15:37;;;;;;;3.25;0.82;;;;;;;16.52;87.46;101242.06;10199467;28;20446;-68
2022/05/31 16:20:37;;;;;;;2.15;0.70;;;;;;;16.44;91.77;101240.22;10208160;28;20111;-68
2022/05/31 16:25:37;;;;;;;2.25;0.68;;;;;;;16.37;83.92;101240.81;10209241;28;20045;-68
2022/05/31 16:30:46;;;;;;;4.95;0.70;;;;;;;16.33;84.93;101237.13;10204185;28;20107;-68
2022/05/31 16:35:44;;;;;;;2.60;0.65;;;;;;;16.44;75.85;101223.69;10207569;28;20049;-68
2022/05/31 16:45:56;;;;;;;4.93;0.95;;;;;;;16.59;85.80;101220.22;10203749;28;20069;-68
2022/05/31 16:51:24;;;;;;;2.05;0.75;;;;;;;16.54;84.60;101225.97;10214291;28;20124;-68
2022/05/31 16:56:29;;;;;;;2.72;0.65;;;;;;;16.42;87.36;101220.44;10205444;28;20053;-68
2022/05/31 17:01:26;;;;;;;4.30;0.73;;;;;;;16.38;90.98;101220.34;10203768;28;20125;-69
2022/05/31 17:16:52;;;;;;;2.58;0.80;;;;;;;16.28;94.35;101214.47;10202252;28;20091;-69
2022/05/31 17:21:49;;;;;;;2.67;0.90;;;;;;;16.23;90.26;101207.22;10209578;28;20037;-68
2022/05/31 17:26:46;;;;;;;2.97;0.65;;;;;;;16.19;89.65;101204.34;10209536;28;20558;-68
2022/05/31 17:31:42;;;;;;;5.25;0.70;;;;;;;16.30;94.25;101195.63;10214692;28;20588;-68
2022/05/31 17:36:42;;;;;;;2.65;0.80;;;;;;;16.32;90.43;101204.38;10207727;28;20560;-68
2022/05/31 17:41:42;;;;;;;2.42;0.73;;;;;;;16.36;100.00;101197.00;10174886;28;20041;-69
2022/05/31 17:46:38;;;;;;;3.13;0.65;;;;;;;16.24;95.23;101197.00;10200393;28;20119;-68
2022/05/31 17:51:38;;;;;;;3.92;1.30;;;;;;;16.16;98.37;101196.78;10196349;28;20129;-69
2022/05/31 17:56:35;;;;;;;4.47;0.80;;;;;;;16.10;100.00;101194.56;10202654;28;20057;-68
2022/05/31 18:01:32;;;;;;;3.05;0.60;;;;;;;15.99;100.00;101203.31;10189881;28;20116;-68
2022/05/31 18:06:31;;;;;;;4.32;1.45;;;;;;;15.85;95.42;101200.06;10195454;28;20057;-68
2022/05/31 18:11:28;;;;;;;2.50;1.00;;;;;;;15.78;99.16;101203.38;10209991;28;20068;-68
2022/05/31 18:16:26;;;;;;;2.97;0.85;;;;;;;15.70;100.00;101207.03;10223306;28;21381;-68
2022/05/31 18:21:26;;;;;;;3.55;0.63;;;;;;;15.63;100.00;101212.28;10200767;28;20145;-68
2022/05/31 18:26:23;;;;;;;2.35;0.70;;;;;;;15.51;100.00;101203.97;10198183;28;20633;-69
2022/05/31 18:31:22;;;;;;;4.47;1.00;;;;;;;15.43;100.00;101211.16;10215797;28;20128;-68
2022/05/31 18:36:47;;;;;;;3.58;0.98;;;;;;;15.35;100.00;101217.56;10203602;28;20437;-68
2022/05/31 18:41:41;;;;;;;7.22;1.20;;;;;;;15.26;100.00;101220.41;10210170;28;20049;-68
2022/05/31 18:46:38;;;;;;;2.63;0.90;;;;;;;15.22;100.00;101213.13;10203258;28;21641;-69
2022/05/31 18:51:34;;;;;;;2.75;0.75;;;;;;;15.15;100.00;101219.19;10208515;28;20107;-68
2022/05/31 18:56:31;;;;;;;3.58;1.05;;;;;;;15.05;100.00;101214.09;10205118;28;20641;-66
2022/05/31 19:01:27;;;;;;;3.15;0.90;;;;;;;15.02;100.00;101214.78;10212624;28;20549;-67
2022/05/31 19:06:24;;;;;;;2.60;1.00;;;;;;;14.98;100.00;101224.84;10200395;28;20056;-67
2022/05/31 19:11:24;;;;;;;2.58;0.93;;;;;;;14.94;100.00;101228.28;10199392;28;20038;-67
2022/05/31 19:16:23;;;;;;;3.20;0.93;;;;;;;14.88;100.00;101226.84;10201752;28;20053;-67
2022/05/31 19:21:24;;;;;;;3.03;1.10;;;;;;;14.88;100.00;101226.84;10215452;28;20041;-67
2022/05/31 19:26:21;;;;;;;3.20;0.93;;;;;;;14.82;100.00;101233.69;10201544;28;20128;-67
2022/05/31 19:31:23;;;;;;;3.75;1.23;;;;;;;14.72;100.00;101239.59;10217917;28;20125;-67
2022/05/31 19:36:21;;;;;;;5.53;1.70;;;;;;;14.62;100.00;101234.44;10218420;28;20053;-67
2022/05/31 19:41:20;;;;;;;3.47;1.38;;;;;;;14.50;100.00;101244.22;10216989;28;20405;-67
2022/05/31 19:46:17;;;;;;;2.78;1.25;;;;;;;14.32;100.00;101249.00;10201371;28;20080;-65
2022/05/31 19:51:14;;;;;;;3.80;1.55;;;;;;;14.17;100.00;101245.97;10211119;28;20547;-65
2022/05/31 19:56:10;;;;;;;2.70;1.20;;;;;;;14.05;100.00;101249.41;10195592;28;20103;-68
2022/05/31 20:01:07;;;;;;;3.75;1.67;;;;;;;13.96;100.00;101254.13;10215966;28;20099;-65
2022/05/31 20:06:04;;;;;;;4.55;1.85;;;;;;;13.86;100.00;101252.53;10206963;28;20066;-65
2022/05/31 20:11:01;;;;;;;3.83;1.67;;;;;;;13.82;100.00;101257.06;10200276;28;20046;-65
2022/05/31 20:15:57;;;;;;;4.30;1.63;;;;;;;13.76;100.00;101264.69;10199295;28;20069;-65
2022/05/31 20:20:59;;;;;;;4.10;1.83;;;;;;;13.70;100.00;101259.69;10199432;28;20191;-65
2022/05/31 20:25:59;;;;;;;4.05;1.90;;;;;;;13.66;100.00;101257.56;10207700;28;20084;-67
2022/05/31 20:30:59;;;;;;;5.30;1.70;;;;;;;13.61;100.00;101260.50;10217865;28;20044;-67
2022/05/31 20:35:57;;;;;;;4.53;2.10;;;;;;;13.52;100.00;101256.94;10223031;28;20129;-67
2022/05/31 20:40:54;;;;;;;5.90;1.60;;;;;;;13.44;100.00;101258.56;10225944;28;20567;-66
2022/05/31 20:45:51;;;;;;;3.72;1.70;;;;;;;13.36;100.00;101261.31;10222252;28;20129;-66
2022/05/31 20:50:49;;;;;;;4.63;1.60;;;;;;;13.34;100.00;101260.81;10225006;28;20085;-67
2022/05/31 20:55:45;;;;;;;4.35;2.00;;;;;;;13.30;100.00;101262.59;10218254;28;20128;-65
2022/05/31 21:00:42;;;;;;;7.10;2.50;;;;;;;13.25;100.00;101264.38;10224826;28;20045;-63
2022/05/31 21:05:38;;;;;;;4.60;2.05;;;;;;;13.23;100.00;101257.59;10221807;28;20500;-63
2022/05/31 21:10:38;;;;;;;5.45;2.00;;;;;;;13.17;100.00;101267.09;10227492;28;20044;-66
2022/05/31 21:15:35;;;;;;;4.93;1.90;;;;;;;13.08;100.00;101261.59;10223466;28;20137;-62
2022/05/31 21:20:32;;;;;;;6.60;2.00;;;;;;;13.03;100.00;101264.50;10223283;28;20072;-61
2022/05/31 21:25:31;;;;;;;5.32;1.65;;;;;;;12.98;100.00;101262.72;10221202;28;20123;-61
2022/05/31 21:30:28;;;;;;;3.65;1.80;;;;;;;12.98;100.00;101264.66;10226895;28;20453;-62
2022/05/31 21:35:26;;;;;;;4.18;1.90;;;;;;;12.92;100.00;101263.19;10226259;28;20165;-62
2022/05/31 21:45:40;;;;;;;6.28;2.20;;;;;;;12.87;100.00;101255.13;10223953;28;20072;-64
2022/05/31 21:50:54;;;;;;;5.90;2.70;;;;;;;12.83;100.00;101260.41;10219003;28;20128;-63
2022/05/31 21:55:51;;;;;;;9.80;3.35;;;;;;;12.79;100.00;101260.25;10227385;28;20071;-63
2022/05/31 22:00:49;;;;;;;4.65;2.60;;;;;;;12.76;100.00;101258.13;10225316;28;20140;-64
2022/05/31 22:05:45;;;;;;;5.40;2.38;;;;;;;12.72;100.00;101265.41;10220407;28;20123;-63
2022/05/31 22:10:42;;;;;;;6.78;2.65;;;;;;;12.67;100.00;101260.09;10225345;28;20478;-63
2022/05/31 22:15:39;;;;;;;4.70;1.92;;;;;;;12.62;100.00;101261.03;10214291;28;20480;-65
2022/05/31 22:20:36;;;;;;;4.70;1.98;;;;;;;12.57;100.00;101263.09;10214708;28;20049;-65
2022/05/31 22:25:33;;;;;;;4.78;2.10;;;;;;;12.56;100.00;101264.25;10218071;28;20517;-64
2022/05/31 22:30:35;;;;;;;4.72;1.90;;;;;;;12.62;100.00;101260.19;10219449;28;20128;-63
2022/05/31 22:35:34;;;;;;;5.15;2.20;;;;;;;12.63;100.00;101267.31;10223574;28;20053;-66
2022/05/31 22:40:34;;;;;;;2.90;1.38;;;;;;;12.58;100.00;101267.47;10220303;28;20046;-66
2022/05/31 22:45:33;;;;;;;3.72;1.58;;;;;;;12.56;100.00;101261.50;10227843;28;20073;-65
2022/05/31 22:50:30;;;;;;;3.95;1.50;;;;;;;12.50;100.00;101257.28;10228042;28;20144;-66
2022/05/31 22:55:28;;;;;;;7.30;1.90;;;;;;;12.42;100.00;101251.44;10226690;28;20127;-65
2022/05/31 23:00:36;;;;;;;4.57;1.73;;;;;;;12.32;100.00;101246.25;10220737;28;20049;-62
2022/05/31 23:05:32;;;;;;;3.40;1.73;;;;;;;12.24;100.00;101244.28;10222125;28;20045;-62
2022/05/31 23:10:29;;;;;;;3.67;1.83;;;;;;;12.12;100.00;101236.66;10225887;28;20053;-63
2022/05/31 23:15:27;;;;;;;3.25;1.50;;;;;;;12.07;100.00;101238.69;10230457;28;20049;-62
2022/05/31 23:20:28;;;;;;;4.97;1.58;;;;;;;12.03;100.00;101248.69;10227596;28;20496;-63
2022/05/31 23:25:25;;;;;;;3.40;1.75;;;;;;;11.94;100.00;101234.94;10227364;28;20045;-63
2022/05/31 23:35:38;;;;;;;4.82;1.77;;;;;;;11.76;100.00;101228.50;10221937;28;20045;-66
2022/05/31 23:40:34;;;;;;;5.13;1.77;;;;;;;11.66;100.00;101228.78;10224816;28;20136;-63
2022/05/31 23:45:30;;;;;;;3.40;1.20;;;;;;;11.57;100.00;101231.47;10227510;28;20049;-63
2022/05/31 23:50:27;;;;;;;3.88;1.63;;;;;;;11.50;100.00;101231.88;10226497;28;20080;-62
2022/05/31 23:55:23;;;;;;;4.03;1.48;;;;;;;11.40;100.00;101221.19;10225669;28;20472;-63
